NCAR-RAP Real-Time Weather Data

Output produced by METARs form (14 October 2019  23:52 UTC)
found at http://weather.rap.ucar.edu/surface/
 
KSLC 142254Z 34009KT 10SM FEW100 SCT200 19/M06 A3004 RMK AO2 SLP147 T01941061 $
KSLC 142154Z 31009KT 10SM SCT230 20/M09 A3003 RMK AO2 SLP143 T02001089 $
KSLC 142054Z 33006KT 10SM SCT230 19/M09 A3002 RMK AO2 SLP144 T01941094 58007 $
KSLC 141954Z 00000KT 10SM SCT230 18/M06 A3004 RMK AO2 SLP146 T01831061 $
KSLC 141854Z 33005KT 10SM FEW150 SCT230 17/M04 A3005 RMK AO2 SLP152 ACSL DSNT SE T01721039 $
KSLC 141754Z 33005KT 10SM SCT220 16/M03 A3005 RMK AO2 SLP152 T01561033 10156 20017 51012 $
KSLC 141654Z 00000KT 10SM FEW140 FEW220 13/M02 A3004 RMK AO2 SLP152 T01281022 $
KSLC 141554Z 00000KT 10SM FEW130 FEW200 10/00 A3003 RMK AO2 SLP152 T01000000 $
KSLC 141454Z 00000KT 8SM BCFG FEW130 FEW200 07/01 A3001 RMK AO2 SLP147 T00670011 53015 $
KSLC 141354Z 00000KT 10SM BCFG FEW130 FEW200 03/01 A2999 RMK AO2 SLP143 T00280011 $
KSLC 141254Z 01004KT 10SM R16L/1800VP6000FT FEW180 02/M02 A2998 RMK AO2 VIS 1/4 NW RNWY SLP138 T00221017 $
KSLC 141154Z 00000KT 9SM SCT180 04/M04 A2996 RMK AO2 SLP126 T00391039 10094 20028 53004 $
KSLC 141054Z 00000KT 10SM FEW200 04/M03 A2994 RMK AO2 SLP119 T00441028 $
KSLC 140954Z 16005KT 10SM FEW200 04/M03 A2994 RMK AO2 SLP113 T00441028 $
KSLC 140854Z COR 02003KT 10SM BKN200 04/M02 A2994 RMK AO2 SLP116 T00391022 53006 $
KSLC 140754Z 11004KT 10SM FEW140 BKN200 07/M06 A2993 RMK AO2 SLP111 T00721056 $
KSLC 140654Z 12004KT 10SM FEW140 BKN200 06/M02 A2992 RMK AO2 SLP108 T00611017 401940011 $
KSLC 140554Z 15006KT 10SM FEW140 BKN200 07/M03 A2992 RMK AO2 SLP111 T00721033 10156 20067 58004 $
KSLC 140454Z 13006KT 10SM FEW140 BKN200 08/M03 A2993 RMK AO2 SLP119 T00781033 $
KSLC 140354Z 00000KT 10SM FEW140 BKN200 09/02 A2994 RMK AO2 SLP123 T00890022 $
KSLC 140254Z 15004KT 10SM FEW180 BKN250 10/02 A2994 RMK AO2 SLP124 T01000017 51005 $
KSLC 140154Z 00000KT 10SM FEW150 SCT200 BKN250 12/02 A2993 RMK AO2 SLP127 T01170022 $
KSLC 140054Z 28007KT 10SM FEW150 SCT200 BKN250 13/M01 A2993 RMK AO2 SLP122 ACSL DSNT W T01281006 $
KSLC 132354Z 28010KT 10SM FEW150 FEW200 BKN250 16/M03 A2992 RMK AO2 SLP115 T01561033 10194 20144 56009 $
KSLC 132254Z 28010KT 10SM FEW200 BKN250 17/M01 A2993 RMK AO2 SLP116 T01671011 $
KSLC 132154Z 33007KT 10SM FEW200 BKN250 19/M07 A2993 RMK AO2 SLP114 T01941072 $
KSLC 132054Z 30003KT 10SM FEW200 SCT250 19/M08 A2995 RMK AO2 SLP120 T01891083 58025 $
KSLC 131954Z 29006KT 10SM FEW200 FEW250 17/M08 A2998 RMK AO2 SLP130 T01721078 $
KSLC 131854Z VRB04KT 10SM FEW220 17/M09 A3001 RMK AO2 SLP141 T01671094 $
KSLC 131754Z 17004KT 10SM FEW220 14/M09 A3003 RMK AO2 SLP154 T01441089 10144 20011 58006 $
KSLC 131654Z 13005KT 10SM FEW200 11/M08 A3005 RMK AO2 SLP161 T01111078 $
KSLC 131554Z 15008KT 10SM FEW200 08/M07 A3006 RMK AO2 SLP168 T00831067 $
KSLC 131454Z 15007KT 10SM FEW200 05/M07 A3005 RMK AO2 SLP170 T00501072 53002 $
KSLC 131354Z 12005KT 10SM CLR 01/M07 A3005 RMK AO2 SLP171 T00111072 $
KSLC 131254Z 17004KT 10SM CLR 02/M08 A3004 RMK AO2 SLP167 T00171083 $
KSLC 131154Z 15004KT 10SM CLR 02/M08 A3005 RMK AO2 SLP163 T00221078 10044 20017 55000 $
KSLC 131054Z 14005KT 10SM CLR 02/M08 A3004 RMK AO2 SLP161 T00171078 $
KSLC 130954Z 11006KT 10SM CLR 02/M07 A3005 RMK AO2 SLP164 T00221072 $
KSLC 130854Z 11005KT 10SM CLR 03/M07 A3005 RMK AO2 SLP161 T00281067 53001 $
KSLC 130754Z 14006KT 10SM CLR 03/M06 A3004 RMK AO2 SLP161 T00331061 $
KSLC 130654Z 15006KT 10SM CLR 04/M06 A3004 RMK AO2 SLP160 T00441056 401391017
KSLC 130554Z 14006KT 10SM CLR 04/M05 A3004 RMK AO2 SLP163 T00441050 10128 20044 56005
KSLC 130454Z 14004KT 10SM CLR 06/M06 A3005 RMK AO2 SLP166 T00561061
KSLC 130354Z 00000KT 10SM CLR 06/M02 A3005 RMK AO2 SLP171 T00611022
KSLC 130254Z 00000KT 10SM CLR 07/M02 A3006 RMK AO2 SLP179 T00721017 58001
KSLC 130154Z 27004KT 10SM CLR 08/M03 A3007 RMK AO2 SLP180 T00831028
KSLC 130054Z 28005KT 10SM CLR 10/M03 A3006 RMK AO2 SLP176 T01001033
KSLC 122354Z 26007KT 10SM CLR 13/M03 A3006 RMK AO2 SLP173 T01281033 10139 20094 58009